Time;durP1;ratioP1;P1;durP2;ratioP2;P2;SDS_P1;SDS_P2;PMS_P1;PMS_P2;Temp;Humidity;BMP_temperature;BMP_pressure;BME280_temperature;BME280_humidity;BME280_pressure;Samples;Min_cycle;Max_cycle;Signal;HPM_P1;HPM_P2
2022/03/06 00:01:06;;;;;;;3.78;1.98;;;-6.30;99.90;;;;;;4364561;32;20527;-62
2022/03/06 00:03:33;;;;;;;2.87;1.98;;;-6.40;99.90;;;;;;4378246;32;20089;-62
2022/03/06 00:05:59;;;;;;;2.20;1.60;;;-6.50;99.90;;;;;;4378645;32;20514;-63
2022/03/06 00:08:25;;;;;;;4.15;2.30;;;-6.60;99.90;;;;;;4378375;32;20085;-62
2022/03/06 00:10:52;;;;;;;3.58;2.17;;;-6.60;99.90;;;;;;4378444;32;20613;-63
2022/03/06 00:13:19;;;;;;;2.50;2.12;;;-6.60;99.90;;;;;;4378468;32;20165;-62
2022/03/06 00:15:45;;;;;;;2.72;1.55;;;-6.70;99.90;;;;;;4378361;32;20086;-63
2022/03/06 00:18:11;;;;;;;2.87;2.10;;;-6.70;99.90;;;;;;4378537;32;20161;-62
2022/03/06 00:20:38;;;;;;;4.50;2.20;;;-6.70;99.90;;;;;;4378332;32;20498;-63
2022/03/06 00:23:05;;;;;;;3.22;2.12;;;-6.70;99.90;;;;;;4363994;32;20080;-63
2022/03/06 00:25:32;;;;;;;2.87;2.10;;;-6.80;99.90;;;;;;4378234;32;20074;-63
2022/03/06 00:27:58;;;;;;;3.12;2.17;;;-6.80;99.90;;;;;;4351447;32;20158;-61
2022/03/06 00:30:24;;;;;;;3.47;2.30;;;-6.90;99.90;;;;;;4364230;32;20077;-62
2022/03/06 00:32:50;;;;;;;3.40;2.10;;;-6.90;99.90;;;;;;4363855;32;20157;-63
2022/03/06 00:35:17;;;;;;;4.53;2.33;;;-6.90;99.90;;;;;;4377862;32;20082;-63
2022/03/06 00:37:43;;;;;;;2.05;1.50;;;-7.00;99.90;;;;;;4377801;32;20074;-61
2022/03/06 00:40:10;;;;;;;3.28;2.40;;;-7.00;99.90;;;;;;4377692;32;20080;-62
2022/03/06 00:42:37;;;;;;;3.92;2.10;;;-7.10;99.90;;;;;;4363834;32;20086;-62
2022/03/06 00:45:04;;;;;;;1.95;1.55;;;-7.20;99.90;;;;;;4377601;32;20463;-62
2022/03/06 00:47:30;;;;;;;3.35;2.25;;;-7.20;99.90;;;;;;4377834;32;20084;-62
2022/03/06 00:49:57;;;;;;;2.53;2.00;;;-7.30;99.90;;;;;;4363744;32;20080;-62
2022/03/06 00:52:24;;;;;;;4.37;2.30;;;-7.30;99.90;;;;;;4377638;32;20155;-63
2022/03/06 00:54:50;;;;;;;4.10;2.00;;;-7.40;99.90;;;;;;4363772;32;20086;-62
2022/03/06 00:57:17;;;;;;;2.75;1.90;;;-7.40;99.90;;;;;;4377600;32;20229;-63
2022/03/06 00:59:43;;;;;;;4.57;2.17;;;-7.40;99.90;;;;;;4363901;32;20182;-62
2022/03/06 01:02:09;;;;;;;3.30;1.98;;;-7.50;99.90;;;;;;4364078;32;20165;-63
2022/03/06 01:04:37;;;;;;;5.22;2.50;;;-7.50;99.90;;;;;;4377355;32;20442;-63
2022/03/06 01:07:04;;;;;;;3.83;2.15;;;-7.60;99.90;;;;;;4351303;32;20106;-62
2022/03/06 01:09:30;;;;;;;3.87;2.35;;;-7.60;99.90;;;;;;4351141;32;20092;-62
2022/03/06 01:11:57;;;;;;;2.95;1.90;;;-7.70;99.90;;;;;;4351174;32;20081;-63
2022/03/06 01:14:24;;;;;;;3.08;2.03;;;-7.70;99.90;;;;;;4363929;32;20082;-61
2022/03/06 01:16:50;;;;;;;4.50;1.90;;;-7.70;99.90;;;;;;4363352;32;20070;-62
2022/03/06 01:19:17;;;;;;;2.20;1.80;;;-7.70;99.90;;;;;;4363869;32;20154;-63
2022/03/06 01:21:43;;;;;;;4.28;2.67;;;-7.80;99.90;;;;;;4377215;32;20125;-63
2022/03/06 01:24:09;;;;;;;4.72;2.37;;;-7.80;99.90;;;;;;4363409;32;20144;-63
2022/03/06 01:26:36;;;;;;;3.28;2.20;;;-7.90;99.90;;;;;;4350770;32;20535;-63
2022/03/06 01:29:04;;;;;;;3.92;2.15;;;-7.90;99.90;;;;;;4377443;32;20085;-63
2022/03/06 01:31:30;;;;;;;2.65;1.70;;;-8.00;99.90;;;;;;4377254;32;20161;-63
2022/03/06 01:33:57;;;;;;;2.95;1.95;;;-8.00;99.90;;;;;;4363889;32;20085;-62
2022/03/06 01:36:23;;;;;;;3.58;2.25;;;-8.10;99.90;;;;;;4351148;32;20077;-62
2022/03/06 01:38:50;;;;;;;3.58;2.42;;;-8.20;99.90;;;;;;4350530;32;20520;-62
2022/03/06 01:41:17;;;;;;;2.83;1.73;;;-8.20;99.90;;;;;;4376501;32;20086;-62
2022/03/06 01:43:43;;;;;;;4.93;2.40;;;-8.20;99.90;;;;;;4377068;32;20082;-62
2022/03/06 01:46:09;;;;;;;3.12;2.40;;;-8.30;99.90;;;;;;4386503;32;20157;-62
2022/03/06 01:48:36;;;;;;;3.47;2.30;;;-8.30;99.90;;;;;;4367130;32;20088;-63
2022/03/06 01:51:02;;;;;;;2.75;1.83;;;-8.30;99.90;;;;;;4376709;32;20074;-62
2022/03/06 01:53:28;;;;;;;4.50;2.35;;;-8.40;99.90;;;;;;4377102;32;20093;-63
2022/03/06 01:55:55;;;;;;;2.03;1.45;;;-8.40;99.90;;;;;;4362799;32;20146;-63
2022/03/06 01:58:21;;;;;;;2.97;1.83;;;-8.50;99.90;;;;;;4363242;32;20075;-63
2022/03/06 02:00:49;;;;;;;3.28;2.10;;;-8.50;99.90;;;;;;4350801;32;20078;-63
2022/03/06 02:03:19;;;;;;;3.53;1.87;;;-8.60;99.90;;;;;;4376708;32;20090;-63
2022/03/06 02:05:46;;;;;;;3.42;2.37;;;-8.60;99.90;;;;;;4376862;32;20085;-63
2022/03/06 02:08:13;;;;;;;2.80;2.05;;;-8.70;99.90;;;;;;4363167;32;20503;-63
2022/03/06 02:10:39;;;;;;;3.17;1.80;;;-8.70;99.90;;;;;;4363031;32;20093;-62
2022/03/06 02:13:06;;;;;;;3.90;1.98;;;-8.70;99.90;;;;;;4376398;32;20154;-62
2022/03/06 02:15:32;;;;;;;2.72;1.92;;;-8.80;99.90;;;;;;4363562;32;20098;-62
2022/03/06 02:18:00;;;;;;;2.35;1.10;;;-8.80;99.90;;;;;;4352506;32;20097;-62
2022/03/06 02:20:27;;;;;;;3.58;2.15;;;-8.80;99.90;;;;;;4377132;32;20503;-61
2022/03/06 02:22:56;;;;;;;3.37;2.08;;;-8.80;99.90;;;;;;4363291;32;20516;-63
2022/03/06 02:25:25;;;;;;;2.78;1.92;;;-8.90;99.90;;;;;;4363027;32;20531;-62
2022/03/06 02:27:54;;;;;;;1.92;1.73;;;-8.90;99.90;;;;;;4363263;32;20084;-62
2022/03/06 02:30:31;;;;;;;3.65;2.20;;;-8.90;99.90;;;;;;4363445;32;20617;-63
2022/03/06 02:32:59;;;;;;;2.80;1.77;;;-9.00;99.90;;;;;;4362655;32;20138;-63
2022/03/06 02:35:26;;;;;;;3.42;2.10;;;-9.00;99.90;;;;;;4362574;32;20084;-62
2022/03/06 02:37:53;;;;;;;3.37;1.92;;;-9.00;99.90;;;;;;4376503;32;20145;-62
2022/03/06 02:40:21;;;;;;;3.35;2.20;;;-9.00;99.90;;;;;;4366869;32;20085;-62
2022/03/06 02:42:50;;;;;;;2.80;1.40;;;-9.10;99.90;;;;;;4369246;32;20082;-62
2022/03/06 02:45:20;;;;;;;6.10;1.87;;;-9.10;99.90;;;;;;4373780;32;20082;-62
2022/03/06 02:47:47;;;;;;;3.08;2.00;;;-9.10;99.90;;;;;;4373989;32;20210;-63
2022/03/06 02:50:22;;;;;;;2.50;2.08;;;-9.20;99.90;;;;;;4358631;32;20094;-68
2022/03/06 02:52:49;;;;;;;3.20;2.30;;;-9.20;99.90;;;;;;4384709;32;20093;-63
2022/03/06 02:55:17;;;;;;;2.85;2.12;;;-9.20;99.90;;;;;;4366573;32;20146;-63
2022/03/06 02:57:44;;;;;;;2.42;1.65;;;-9.40;99.90;;;;;;4362968;32;20178;-63
2022/03/06 03:00:17;;;;;;;1.48;1.17;;;-9.30;99.90;;;;;;4362407;32;20086;-61
2022/03/06 03:02:44;;;;;;;3.15;2.15;;;-9.40;99.90;;;;;;4363518;32;20066;-62
2022/03/06 03:05:13;;;;;;;3.55;2.10;;;-9.50;99.90;;;;;;4354063;32;20098;-63
2022/03/06 03:07:41;;;;;;;3.80;2.17;;;-9.50;99.90;;;;;;4379268;32;20081;-61
2022/03/06 03:10:12;;;;;;;1.40;1.05;;;-9.50;99.90;;;;;;4365209;32;20059;-63
2022/03/06 03:12:39;;;;;;;2.62;2.22;;;-9.60;99.90;;;;;;4365321;32;20078;-63
2022/03/06 03:15:07;;;;;;;2.67;1.83;;;-9.60;99.90;;;;;;4365754;32;20468;-63
2022/03/06 03:17:34;;;;;;;4.40;2.17;;;-9.60;99.90;;;;;;4353308;32;20471;-63
2022/03/06 03:20:00;;;;;;;3.50;2.28;;;-9.70;99.90;;;;;;4378901;32;20507;-63
2022/03/06 03:22:27;;;;;;;4.15;2.37;;;-9.70;99.90;;;;;;4378925;32;20093;-63
2022/03/06 03:24:53;;;;;;;4.93;2.78;;;-9.70;99.90;;;;;;4352527;32;20153;-62
2022/03/06 03:27:19;;;;;;;3.78;2.33;;;-9.80;99.90;;;;;;4378922;32;20085;-62
2022/03/06 03:29:45;;;;;;;3.85;2.20;;;-9.80;99.90;;;;;;4378996;32;20088;-62
2022/03/06 03:32:12;;;;;;;3.42;2.00;;;-9.80;99.90;;;;;;4378850;32;20073;-63
2022/03/06 03:34:38;;;;;;;3.30;2.30;;;-9.90;99.90;;;;;;4352406;32;20155;-63
2022/03/06 03:37:05;;;;;;;3.90;2.10;;;-9.90;99.90;;;;;;4378495;32;20456;-63
2022/03/06 03:39:31;;;;;;;4.28;2.25;;;-10.00;99.90;;;;;;4352239;32;20508;-62
2022/03/06 03:41:58;;;;;;;4.20;2.22;;;-10.00;99.90;;;;;;4352913;32;20174;-62
2022/03/06 03:44:24;;;;;;;4.30;1.98;;;-10.00;99.90;;;;;;4365894;32;20075;-62
2022/03/06 03:46:50;;;;;;;3.72;2.20;;;-10.00;99.90;;;;;;4364957;32;20089;-61
2022/03/06 03:49:16;;;;;;;2.15;1.55;;;-10.10;99.90;;;;;;4378789;32;20160;-61
2022/03/06 03:51:43;;;;;;;2.60;2.00;;;-10.20;99.90;;;;;;4364977;32;20078;-62
2022/03/06 03:54:10;;;;;;;3.22;1.87;;;-10.20;99.90;;;;;;4378651;32;20508;-63
2022/03/06 03:56:36;;;;;;;2.87;1.75;;;-10.10;99.90;;;;;;4378717;32;20074;-62
2022/03/06 03:59:03;;;;;;;2.72;2.25;;;-10.20;99.90;;;;;;4378467;32;20066;-62
2022/03/06 04:01:29;;;;;;;2.40;1.80;;;-10.20;99.90;;;;;;4364557;32;20126;-61
2022/03/06 04:03:55;;;;;;;2.85;1.87;;;-10.30;99.90;;;;;;4378522;32;20071;-61
2022/03/06 04:06:22;;;;;;;2.95;1.80;;;-10.30;99.90;;;;;;4372872;32;20062;-62
2022/03/06 04:08:48;;;;;;;3.33;1.85;;;-10.30;99.90;;;;;;4373359;32;20093;-63
2022/03/06 04:11:14;;;;;;;4.30;2.30;;;-10.30;99.90;;;;;;4378752;32;20074;-62
2022/03/06 04:13:40;;;;;;;4.30;2.30;;;-10.30;99.90;;;;;;4378394;32;20081;-62
2022/03/06 04:16:07;;;;;;;4.00;1.98;;;-10.30;99.90;;;;;;4378443;32;20066;-62
2022/03/06 04:18:33;;;;;;;3.80;2.05;;;-10.40;99.90;;;;;;4339612;32;20185;-62
2022/03/06 04:21:00;;;;;;;2.62;1.80;;;-10.30;99.90;;;;;;4378296;32;20074;-63
2022/03/06 04:23:26;;;;;;;3.25;1.95;;;-10.30;99.90;;;;;;4364485;32;20155;-64
2022/03/06 04:25:52;;;;;;;2.28;1.73;;;-10.30;99.90;;;;;;4364231;32;20154;-63
2022/03/06 04:28:18;;;;;;;2.53;1.80;;;-10.40;99.90;;;;;;4378019;32;20177;-62
2022/03/06 04:30:45;;;;;;;2.85;1.77;;;-10.20;99.90;;;;;;4377946;32;20105;-62
2022/03/06 04:33:11;;;;;;;3.85;1.55;;;-10.30;99.90;;;;;;4353676;32;20110;-62
2022/03/06 04:35:37;;;;;;;1.90;1.40;;;-10.30;99.90;;;;;;4366235;32;20467;-61
2022/03/06 04:38:04;;;;;;;3.22;2.10;;;-10.30;99.90;;;;;;4364837;32;20173;-61
2022/03/06 04:40:30;;;;;;;2.12;1.62;;;-10.30;99.90;;;;;;4377790;32;20078;-63
2022/03/06 04:42:56;;;;;;;3.15;1.80;;;-10.40;99.90;;;;;;4378500;32;20187;-62
2022/03/06 04:45:24;;;;;;;3.22;1.87;;;-10.40;99.90;;;;;;4377603;32;20126;-62
2022/03/06 04:47:50;;;;;;;3.12;2.17;;;-10.50;99.90;;;;;;4363852;32;20097;-63
2022/03/06 04:50:17;;;;;;;2.85;2.30;;;-10.40;99.90;;;;;;4378059;32;20066;-61
2022/03/06 04:52:43;;;;;;;5.82;2.33;;;-10.30;99.90;;;;;;4378308;32;20136;-63
2022/03/06 04:55:09;;;;;;;3.92;1.92;;;-10.40;99.90;;;;;;4351669;32;20073;-63
2022/03/06 04:57:36;;;;;;;3.00;1.75;;;-10.40;99.90;;;;;;4364031;32;20151;-62
2022/03/06 05:00:05;;;;;;;3.03;2.12;;;-10.40;99.90;;;;;;4351989;32;20078;-63
2022/03/06 05:02:31;;;;;;;3.37;2.10;;;-10.50;99.90;;;;;;4363901;32;20497;-63
2022/03/06 05:04:58;;;;;;;1.83;1.42;;;-10.50;99.90;;;;;;4364044;32;20074;-62
2022/03/06 05:07:24;;;;;;;2.12;1.67;;;-10.40;99.90;;;;;;4378135;32;20496;-63
2022/03/06 05:09:50;;;;;;;2.33;1.52;;;-10.30;99.90;;;;;;4363560;32;20181;-62
2022/03/06 05:12:17;;;;;;;3.17;1.95;;;-10.30;99.90;;;;;;4351400;32;20577;-62
2022/03/06 05:14:43;;;;;;;2.40;1.80;;;-10.50;99.90;;;;;;4364430;32;20097;-63
2022/03/06 05:17:09;;;;;;;3.67;2.15;;;-10.40;99.90;;;;;;4351575;32;20092;-62
2022/03/06 05:19:36;;;;;;;3.42;2.17;;;-9.50;99.90;;;;;;4377558;32;20089;-62
2022/03/06 05:22:02;;;;;;;2.95;1.40;;;-9.20;99.90;;;;;;4363381;32;20153;-62
2022/03/06 05:24:28;;;;;;;3.30;2.17;;;-8.90;99.90;;;;;;4363175;32;20556;-63
2022/03/06 05:26:55;;;;;;;0.80;0.62;;;-8.70;99.80;;;;;;4362917;32;20078;-63
2022/03/06 05:29:21;;;;;;;3.47;2.20;;;-8.60;98.00;;;;;;4363100;32;20121;-62
2022/03/06 05:31:48;;;;;;;3.47;2.22;;;-8.90;98.00;;;;;;4363079;32;20074;-63
2022/03/06 05:34:14;;;;;;;3.15;2.08;;;-8.60;96.90;;;;;;4350756;32;20066;-62
2022/03/06 05:36:40;;;;;;;3.22;2.08;;;-8.80;96.60;;;;;;4363329;32;20070;-63
2022/03/06 05:39:06;;;;;;;1.90;1.70;;;-8.80;97.00;;;;;;4363812;32;20527;-63
2022/03/06 05:41:33;;;;;;;2.28;1.80;;;-8.70;96.20;;;;;;4363698;32;20109;-63
2022/03/06 05:43:59;;;;;;;2.20;1.60;;;-8.80;96.70;;;;;;4377293;32;20070;-62
2022/03/06 05:46:25;;;;;;;2.75;1.70;;;-9.10;96.10;;;;;;4377345;32;20162;-62
2022/03/06 05:48:52;;;;;;;2.12;1.85;;;-8.90;96.10;;;;;;4350587;32;20211;-62
2022/03/06 05:51:18;;;;;;;3.87;2.17;;;-8.60;95.60;;;;;;4362859;32;20081;-63
2022/03/06 05:53:44;;;;;;;2.78;1.92;;;-8.60;94.90;;;;;;4377284;32;20088;-62
2022/03/06 05:56:11;;;;;;;3.25;1.98;;;-8.50;95.70;;;;;;4376815;32;20164;-62
2022/03/06 05:58:37;;;;;;;2.65;1.83;;;-9.10;96.00;;;;;;4362605;32;20073;-63
2022/03/06 06:01:03;;;;;;;2.67;2.08;;;-8.50;95.20;;;;;;4376807;32;20141;-63
2022/03/06 06:03:29;;;;;;;3.83;2.20;;;-8.70;95.00;;;;;;4363179;32;20074;-63
2022/03/06 06:05:56;;;;;;;1.87;1.40;;;-8.20;94.80;;;;;;4376596;32;20210;-63
2022/03/06 06:08:22;;;;;;;4.00;2.00;;;-7.90;94.90;;;;;;4376723;32;20093;-62
2022/03/06 06:10:49;;;;;;;3.70;2.20;;;-8.20;94.00;;;;;;4376914;32;20086;-63
2022/03/06 06:13:15;;;;;;;2.10;1.55;;;-8.50;95.20;;;;;;4362667;32;20070;-62
2022/03/06 06:15:43;;;;;;;4.90;1.75;;;-8.80;96.20;;;;;;4376620;32;20188;-63
2022/03/06 06:18:10;;;;;;;4.10;2.12;;;-8.80;95.00;;;;;;4362929;32;20097;-62
2022/03/06 06:20:37;;;;;;;1.37;1.00;;;-9.80;98.20;;;;;;4362928;32;20080;-62
2022/03/06 06:23:04;;;;;;;2.45;1.30;;;-9.80;99.90;;;;;;4376717;32;20073;-62
2022/03/06 06:25:31;;;;;;;2.67;1.80;;;-9.90;99.90;;;;;;4362688;32;20157;-61
2022/03/06 06:27:57;;;;;;;1.92;1.33;;;-9.90;99.90;;;;;;4367256;32;20082;-61
2022/03/06 06:30:24;;;;;;;1.95;1.60;;;-9.80;99.90;;;;;;4364772;32;20077;-62
2022/03/06 06:32:50;;;;;;;3.12;1.35;;;-10.10;99.90;;;;;;4363236;32;20066;-63
2022/03/06 06:35:16;;;;;;;2.62;1.45;;;-10.10;99.90;;;;;;4362047;32;20549;-61
2022/03/06 06:37:43;;;;;;;2.67;1.87;;;-10.00;99.90;;;;;;4376072;32;20074;-62
2022/03/06 06:40:10;;;;;;;2.10;1.37;;;-10.20;99.90;;;;;;4362305;32;20145;-63
2022/03/06 06:42:36;;;;;;;3.03;1.90;;;-9.90;99.90;;;;;;4375969;32;20088;-62
2022/03/06 06:45:03;;;;;;;3.22;1.95;;;-9.90;99.90;;;;;;4350398;32;20531;-62
2022/03/06 06:47:29;;;;;;;2.85;2.00;;;-9.80;99.90;;;;;;4376679;32;20074;-62
2022/03/06 06:49:56;;;;;;;2.62;1.80;;;-9.80;99.90;;;;;;4363553;32;20166;-61
2022/03/06 06:52:22;;;;;;;3.15;1.75;;;-10.00;99.90;;;;;;4363014;32;20073;-62
2022/03/06 06:54:48;;;;;;;2.55;2.00;;;-10.00;99.90;;;;;;4376370;32;20159;-63
2022/03/06 06:57:15;;;;;;;4.15;2.20;;;-10.00;99.90;;;;;;4362595;32;20169;-63
2022/03/06 06:59:42;;;;;;;2.70;1.92;;;-10.20;99.90;;;;;;4362361;32;20071;-62
2022/03/06 07:02:08;;;;;;;4.15;2.47;;;-10.20;99.90;;;;;;4375897;32;20243;-62
2022/03/06 07:04:34;;;;;;;3.72;2.00;;;-10.10;99.90;;;;;;4363033;32;20138;-62
2022/03/06 07:07:01;;;;;;;1.40;1.27;;;-9.90;99.90;;;;;;4350414;32;20183;-63
2022/03/06 07:09:27;;;;;;;3.00;2.20;;;-10.00;99.90;;;;;;4376085;32;20083;-62
2022/03/06 07:11:53;;;;;;;2.70;2.00;;;-10.00;99.90;;;;;;4350175;32;20527;-63
2022/03/06 07:14:20;;;;;;;3.47;1.77;;;-9.90;99.90;;;;;;4362585;32;20078;-63
2022/03/06 07:16:46;;;;;;;3.05;1.50;;;-9.70;99.90;;;;;;4362271;32;20508;-62
2022/03/06 07:19:13;;;;;;;1.42;1.17;;;-9.90;99.90;;;;;;4362144;32;20171;-62
2022/03/06 07:21:39;;;;;;;2.50;1.58;;;-9.90;99.90;;;;;;4376234;32;20161;-61
2022/03/06 07:24:07;;;;;;;2.87;2.10;;;-9.80;99.90;;;;;;4362063;32;20534;-62
2022/03/06 07:26:33;;;;;;;2.72;2.08;;;-9.80;99.90;;;;;;4362537;32;20549;-63
2022/03/06 07:29:00;;;;;;;2.17;1.80;;;-9.70;99.90;;;;;;4374773;32;20154;-62
2022/03/06 07:31:26;;;;;;;3.37;1.62;;;-9.80;99.90;;;;;;4376350;32;20082;-61
2022/03/06 07:33:52;;;;;;;2.17;1.30;;;-9.40;99.90;;;;;;4362382;32;20093;-61
2022/03/06 07:36:19;;;;;;;2.35;1.73;;;-9.70;99.90;;;;;;4376014;32;20460;-62
2022/03/06 07:38:45;;;;;;;3.40;1.75;;;-10.00;99.90;;;;;;4374510;32;20148;-61
2022/03/06 07:41:12;;;;;;;3.60;2.08;;;-9.90;99.90;;;;;;4376156;32;20082;-61
2022/03/06 07:43:39;;;;;;;1.58;1.30;;;-9.80;99.90;;;;;;4362959;32;20168;-65
2022/03/06 07:46:05;;;;;;;1.37;1.20;;;-9.80;99.90;;;;;;4362733;32;20069;-61
2022/03/06 07:48:31;;;;;;;3.95;2.20;;;-9.30;99.90;;;;;;4376894;32;20101;-62
2022/03/06 07:50:58;;;;;;;2.87;1.80;;;-9.40;99.90;;;;;;4364584;32;20083;-62
2022/03/06 07:53:24;;;;;;;1.55;1.15;;;-9.40;99.90;;;;;;4364526;32;20552;-62
2022/03/06 07:55:50;;;;;;;3.85;1.95;;;-9.70;99.90;;;;;;4378253;32;20433;-62
2022/03/06 07:58:17;;;;;;;1.67;1.17;;;-9.40;99.90;;;;;;4364834;32;20073;-62
2022/03/06 08:00:43;;;;;;;2.42;1.85;;;-9.60;99.90;;;;;;4378426;32;20087;-61
2022/03/06 08:03:10;;;;;;;3.80;2.22;;;-9.20;99.90;;;;;;4364565;32;20148;-62
2022/03/06 08:05:36;;;;;;;4.05;1.75;;;-9.30;99.90;;;;;;4364635;32;20101;-61
2022/03/06 08:08:03;;;;;;;3.75;2.60;;;-9.20;99.90;;;;;;4364606;32;20070;-62
2022/03/06 08:10:29;;;;;;;3.22;2.17;;;-9.30;99.90;;;;;;4378736;32;20149;-61
2022/03/06 08:12:56;;;;;;;2.22;1.80;;;-9.30;99.90;;;;;;4379248;32;20090;-62
2022/03/06 08:15:22;;;;;;;3.67;2.10;;;-8.90;99.90;;;;;;4379955;32;20480;-62
2022/03/06 08:17:49;;;;;;;3.55;1.30;;;-9.30;99.90;;;;;;4378853;32;20162;-61
2022/03/06 08:20:15;;;;;;;1.33;0.93;;;-9.20;99.90;;;;;;4379291;32;20082;-62
2022/03/06 08:22:42;;;;;;;2.78;1.90;;;-8.60;99.90;;;;;;4354725;32;20153;-62
2022/03/06 08:25:10;;;;;;;3.55;2.30;;;-9.20;99.90;;;;;;4366040;32;20159;-62
2022/03/06 08:27:36;;;;;;;3.22;2.10;;;-9.00;99.90;;;;;;4365013;32;20085;-61
2022/03/06 08:30:06;;;;;;;3.50;2.50;;;-9.20;99.90;;;;;;4365197;32;20093;-62
2022/03/06 08:32:33;;;;;;;2.40;1.87;;;-8.90;99.90;;;;;;4364465;32;20084;-62
2022/03/06 08:35:00;;;;;;;2.70;2.03;;;-8.60;99.90;;;;;;4378186;32;20122;-61
2022/03/06 08:37:26;;;;;;;2.42;1.70;;;-9.10;99.90;;;;;;4378170;32;20165;-62
2022/03/06 08:39:52;;;;;;;2.53;1.75;;;-8.70;99.90;;;;;;4364527;32;20155;-62
2022/03/06 08:42:19;;;;;;;3.45;2.30;;;-8.70;99.90;;;;;;4351746;32;20078;-62
2022/03/06 08:44:45;;;;;;;2.67;2.05;;;-9.10;99.90;;;;;;4352173;32;20542;-62
2022/03/06 08:47:12;;;;;;;2.42;1.77;;;-8.70;99.90;;;;;;4370086;32;20175;-62
2022/03/06 08:49:38;;;;;;;3.70;2.20;;;-8.20;99.90;;;;;;4380419;32;20432;-61
2022/03/06 08:52:05;;;;;;;3.70;2.20;;;-8.50;99.90;;;;;;4377359;32;20082;-61
2022/03/06 08:54:31;;;;;;;4.00;2.30;;;-8.60;99.90;;;;;;4377933;32;20166;-62
2022/03/06 08:56:58;;;;;;;2.53;1.60;;;-9.00;99.90;;;;;;4351692;32;20080;-62
2022/03/06 08:59:24;;;;;;;3.85;2.60;;;-8.80;99.90;;;;;;4378175;32;20108;-62
2022/03/06 09:01:55;;;;;;;1.37;1.27;;;-8.50;99.90;;;;;;4378369;32;20080;-61
2022/03/06 09:04:25;;;;;;;6.55;2.78;;;-8.30;99.90;;;;;;4377963;32;20081;-62
2022/03/06 09:06:53;;;;;;;4.07;2.03;;;-8.30;99.90;;;;;;4369138;32;20081;-61
2022/03/06 09:09:19;;;;;;;3.60;1.67;;;-8.10;99.90;;;;;;4366033;32;20069;-63
2022/03/06 09:11:45;;;;;;;2.90;2.10;;;-8.50;99.90;;;;;;4363265;32;20172;-63
2022/03/06 09:14:12;;;;;;;1.12;0.90;;;-8.20;99.90;;;;;;4364321;32;20165;-63
2022/03/06 09:16:38;;;;;;;2.03;1.45;;;-8.60;99.90;;;;;;4363836;32;20148;-65
2022/03/06 09:19:05;;;;;;;3.62;2.10;;;-8.00;99.90;;;;;;4364111;32;20078;-63
2022/03/06 09:21:31;;;;;;;2.62;1.02;;;-8.20;99.90;;;;;;4364998;32;20090;-62
2022/03/06 09:23:57;;;;;;;2.75;1.87;;;-8.40;99.90;;;;;;4351514;32;20139;-62
2022/03/06 09:26:24;;;;;;;5.55;2.47;;;-8.40;99.90;;;;;;4351509;32;20090;-62
2022/03/06 09:28:50;;;;;;;2.22;1.80;;;-8.60;99.90;;;;;;4377011;32;20085;-62
2022/03/06 09:31:17;;;;;;;3.40;2.05;;;-8.20;99.90;;;;;;4363007;32;20539;-63
2022/03/06 09:33:43;;;;;;;3.00;1.92;;;-7.90;99.90;;;;;;4363285;32;20074;-63
2022/03/06 09:36:09;;;;;;;4.28;2.45;;;-8.00;99.90;;;;;;4350928;32;20074;-63
2022/03/06 09:38:36;;;;;;;3.20;2.10;;;-7.90;99.90;;;;;;4363510;32;20488;-61
2022/03/06 09:41:04;;;;;;;3.37;2.22;;;-7.90;99.90;;;;;;4350593;32;20070;-62
2022/03/06 09:43:32;;;;;;;2.65;1.98;;;-7.70;99.90;;;;;;4351016;32;20070;-61
2022/03/06 09:46:07;;;;;;;3.00;2.58;;;-7.80;99.90;;;;;;4377079;32;20130;-63
2022/03/06 09:48:34;;;;;;;3.97;2.30;;;-7.30;99.90;;;;;;4376988;32;20101;-62
2022/03/06 09:51:08;;;;;;;4.12;2.70;;;-7.70;99.90;;;;;;4377018;32;20080;-62
2022/03/06 09:53:34;;;;;;;4.15;2.53;;;-7.70;99.90;;;;;;4376848;32;20173;-62
2022/03/06 09:56:00;;;;;;;3.85;2.28;;;-7.90;99.90;;;;;;4377545;32;20085;-62
2022/03/06 09:58:27;;;;;;;3.97;2.37;;;-7.60;99.90;;;;;;4351055;32;20161;-63
2022/03/06 10:00:54;;;;;;;2.58;2.20;;;-7.80;99.90;;;;;;4376815;32;20151;-62
2022/03/06 10:03:22;;;;;;;1.98;1.62;;;-7.90;99.90;;;;;;4350982;32;20078;-62
2022/03/06 10:05:50;;;;;;;3.03;2.05;;;-6.70;99.90;;;;;;4362979;32;20508;-62
2022/03/06 10:08:20;;;;;;;3.87;2.87;;;-6.70;99.90;;;;;;4376513;32;20190;-62
2022/03/06 10:10:56;;;;;;;4.93;2.92;;;-6.90;99.90;;;;;;4362807;32;20157;-61
2022/03/06 10:13:31;;;;;;;3.37;2.22;;;-7.30;99.90;;;;;;4376768;32;20089;-62
2022/03/06 10:16:17;;;;;;;2.47;1.60;;;-7.80;99.90;;;;;;4378836;32;20058;-62
2022/03/06 10:18:56;;;;;;;2.72;1.80;;;-7.60;99.90;;;;;;4363729;32;20090;-61
2022/03/06 10:21:33;;;;;;;2.30;1.48;;;-7.60;99.90;;;;;;4362785;32;20084;-63
2022/03/06 10:23:59;;;;;;;;;;;-7.70;99.90;;;;;;4363193;32;20149;-62
2022/03/06 10:26:28;;;;;;;;;;;-7.70;99.90;;;;;;4377077;32;19985;-62
2022/03/06 10:29:11;;;;;;;2.83;1.92;;;-7.70;99.90;;;;;;4350322;32;20032;-62
2022/03/06 10:31:53;;;;;;;1.42;1.27;;;-7.20;99.90;;;;;;4362811;32;20472;-61
2022/03/06 10:34:19;;;;;;;3.60;1.90;;;-7.50;99.90;;;;;;4363781;32;20174;-63
2022/03/06 10:36:51;;;;;;;3.70;2.22;;;-6.90;99.90;;;;;;4376282;32;20091;-62
2022/03/06 10:39:23;;;;;;;4.28;2.30;;;-6.90;99.90;;;;;;4362563;32;20134;-64
2022/03/06 10:41:53;;;;;;;3.40;2.45;;;-6.90;99.90;;;;;;4350679;32;20159;-62
2022/03/06 10:44:22;;;;;;;3.33;2.17;;;-6.80;99.90;;;;;;4352810;32;20152;-63
2022/03/06 10:47:04;;;;;;;3.17;2.35;;;-6.80;99.90;;;;;;4362907;32;20534;-61
2022/03/06 10:49:32;;;;;;;3.37;2.28;;;-7.20;99.90;;;;;;4376753;32;20085;-63
2022/03/06 10:52:22;;;;;;;4.10;2.75;;;-7.00;99.90;;;;;;4376176;32;20090;-62
2022/03/06 10:54:54;;;;;;;3.62;2.60;;;-7.40;99.90;;;;;;4376902;32;20222;-63
2022/03/06 10:57:22;;;;;;;3.03;2.20;;;-7.30;99.90;;;;;;4350994;32;20097;-61
2022/03/06 10:59:50;;;;;;;4.70;2.28;;;-7.60;99.90;;;;;;4350454;32;20179;-66
2022/03/06 11:02:17;;;;;;;3.20;2.25;;;-7.70;99.90;;;;;;4376723;32;20512;-61
2022/03/06 11:04:47;;;;;;;2.47;1.83;;;-7.60;99.90;;;;;;4373001;32;20137;-62
2022/03/06 11:07:14;;;;;;;3.65;2.40;;;-7.60;99.90;;;;;;4350994;32;20162;-62
2022/03/06 11:09:41;;;;;;;3.53;2.00;;;-7.50;99.90;;;;;;4362651;32;20076;-62
2022/03/06 11:12:08;;;;;;;3.03;2.05;;;-7.50;99.90;;;;;;4350331;32;20094;-61
2022/03/06 11:14:35;;;;;;;4.22;2.28;;;-7.50;99.90;;;;;;4349844;32;20164;-62
2022/03/06 11:17:02;;;;;;;2.10;1.60;;;-7.20;99.90;;;;;;4349980;32;20101;-63
2022/03/06 11:19:32;;;;;;;4.57;2.33;;;-7.10;99.90;;;;;;4362568;32;20082;-62
2022/03/06 11:22:27;;;;;;;4.35;2.30;;;-6.90;99.90;;;;;;4379504;32;20085;-62
2022/03/06 11:25:05;;;;;;;1.75;1.52;;;-6.60;99.90;;;;;;4368308;32;20092;-62
2022/03/06 11:27:50;;;;;;;3.90;2.40;;;-6.40;99.90;;;;;;4386889;32;20169;-62
2022/03/06 11:30:21;;;;;;;3.95;2.50;;;-6.60;99.90;;;;;;4369756;32;20115;-62
2022/03/06 11:33:04;;;;;;;3.95;2.40;;;-6.50;99.90;;;;;;4366308;32;20195;-62
2022/03/06 11:35:42;;;;;;;3.75;2.65;;;-6.60;99.90;;;;;;4366072;32;20459;-63
2022/03/06 11:38:11;;;;;;;3.80;2.70;;;-6.60;99.90;;;;;;4352977;32;20456;-62
2022/03/06 11:40:50;;;;;;;3.78;2.58;;;-6.70;99.90;;;;;;4365242;32;20171;-61
2022/03/06 11:43:38;;;;;;;3.20;2.20;;;-6.30;99.90;;;;;;4365092;32;20078;-62
2022/03/06 11:46:20;;;;;;;2.72;2.33;;;-6.40;99.90;;;;;;4353119;32;20444;-62
2022/03/06 11:48:49;;;;;;;3.37;2.37;;;-6.10;99.90;;;;;;4352950;32;20070;-62
2022/03/06 11:51:15;;;;;;;3.40;2.37;;;-5.70;99.90;;;;;;4378993;32;20417;-62
2022/03/06 11:53:57;;;;;;;3.40;2.40;;;-5.90;99.90;;;;;;4379008;32;20089;-61
2022/03/06 11:56:35;;;;;;;3.83;2.53;;;-6.30;99.90;;;;;;4379404;32;20448;-61
2022/03/06 11:59:23;;;;;;;3.30;2.30;;;-5.30;99.50;;;;;;4378352;32;20090;-63
2022/03/06 12:01:54;;;;;;;4.03;2.30;;;-6.20;99.90;;;;;;4364706;32;20062;-62
2022/03/06 12:04:28;;;;;;;4.32;2.22;;;-6.40;99.90;;;;;;4352412;32;20081;-62
2022/03/06 12:07:04;;;;;;;3.08;2.15;;;-5.90;99.90;;;;;;4364743;32;20092;-62
2022/03/06 12:09:38;;;;;;;6.12;2.42;;;-6.00;99.90;;;;;;4378832;32;20092;-62
2022/03/06 12:12:17;;;;;;;4.87;2.58;;;-6.30;99.90;;;;;;4352572;32;20080;-62
2022/03/06 12:14:53;;;;;;;3.28;2.40;;;-6.30;99.90;;;;;;4378720;32;20093;-61
2022/03/06 12:17:23;;;;;;;3.28;2.35;;;-6.10;99.90;;;;;;4365315;32;20081;-62
2022/03/06 12:19:49;;;;;;;4.72;2.72;;;-6.10;99.90;;;;;;4378311;32;20496;-62
2022/03/06 12:22:21;;;;;;;2.42;1.92;;;-6.30;99.90;;;;;;4378429;32;20578;-62
2022/03/06 12:24:51;;;;;;;3.17;2.05;;;-6.40;99.90;;;;;;4378458;32;20182;-63
2022/03/06 12:27:20;;;;;;;4.72;2.60;;;-6.20;99.90;;;;;;4364254;32;20105;-62
2022/03/06 12:29:46;;;;;;;4.90;3.00;;;-6.00;99.90;;;;;;4378232;32;20157;-63
2022/03/06 12:32:24;;;;;;;4.05;2.75;;;-6.40;99.90;;;;;;4378112;32;20174;-63
2022/03/06 12:35:03;;;;;;;6.10;2.58;;;-6.20;99.90;;;;;;4366033;32;20456;-63
2022/03/06 12:37:36;;;;;;;3.80;1.98;;;-6.40;99.90;;;;;;4364560;32;20098;-62
2022/03/06 12:40:16;;;;;;;4.30;2.70;;;-6.20;99.90;;;;;;4377670;32;20247;-62
2022/03/06 12:42:45;;;;;;;4.85;2.72;;;-6.50;99.90;;;;;;4367361;32;20066;-63
2022/03/06 12:45:15;;;;;;;3.80;2.40;;;-6.20;99.90;;;;;;4365419;32;20086;-63
2022/03/06 12:47:45;;;;;;;4.05;2.58;;;-6.10;99.90;;;;;;4377963;32;20162;-62
2022/03/06 12:50:19;;;;;;;3.92;2.70;;;-6.20;99.90;;;;;;4364486;32;20080;-64